createdAt,value
2019-02-26T00:00:21.886Z,21.25
2019-02-26T00:02:52.607Z,21.95
2019-02-26T00:05:21.578Z,23.98
2019-02-26T00:07:53.234Z,23.90
2019-02-26T00:10:24.786Z,21.68
2019-02-26T00:12:52.081Z,24.57
2019-02-26T00:15:20.760Z,21.60
2019-02-26T00:17:50.866Z,20.77
2019-02-26T00:20:19.757Z,20.08
2019-02-26T00:22:48.414Z,17.45
2019-02-26T00:25:18.059Z,20.40
2019-02-26T00:27:49.334Z,19.80
2019-02-26T00:30:18.654Z,22.50
2019-02-26T00:32:47.436Z,20.85
2019-02-26T00:35:18.230Z,19.15
2019-02-26T00:37:47.161Z,20.97
2019-02-26T00:40:19.648Z,22.45
2019-02-26T00:42:50.211Z,22.22
2019-02-26T00:45:22.270Z,22.93
2019-02-26T00:47:47.935Z,20.32
2019-02-26T00:50:16.781Z,22.02
2019-02-26T00:52:45.488Z,23.87
2019-02-26T00:55:14.146Z,23.02
2019-02-26T00:57:43.187Z,22.25
2019-02-26T01:00:16.738Z,21.17
2019-02-26T01:02:45.420Z,21.27
2019-02-26T01:05:16.370Z,22.15
2019-02-26T01:07:47.345Z,20.90
2019-02-26T01:10:16.900Z,22.48
2019-02-26T01:12:46.464Z,23.87
2019-02-26T01:15:17.530Z,19.90
2019-02-26T01:17:46.410Z,22.25
2019-02-26T01:20:16.993Z,22.25
2019-02-26T01:22:45.843Z,19.45
2019-02-26T01:25:15.951Z,22.55
2019-02-26T01:27:47.789Z,19.82
2019-02-26T01:30:21.341Z,23.35
2019-02-26T01:32:46.604Z,23.40
2019-02-26T01:35:15.281Z,21.95
2019-02-26T01:37:43.960Z,22.70
2019-02-26T01:40:16.343Z,22.30
2019-02-26T01:42:49.764Z,25.40
2019-02-26T01:45:19.389Z,20.43
2019-02-26T01:47:48.220Z,20.68
2019-02-26T01:50:16.871Z,20.52
2019-02-26T01:52:45.521Z,22.85
2019-02-26T01:55:15.999Z,20.17
2019-02-26T01:57:44.525Z,21.25
2019-02-26T02:00:20.046Z,23.98
2019-02-26T02:02:48.706Z,20.00
2019-02-26T02:05:19.050Z,20.35
2019-02-26T02:07:49.599Z,19.20
2019-02-26T02:10:18.127Z,22.02
2019-02-26T02:12:46.783Z,22.22
2019-02-26T02:15:20.484Z,23.55
2019-02-26T02:17:46.735Z,19.07
2019-02-26T02:20:20.765Z,20.10
2019-02-26T02:22:46.747Z,20.15
2019-02-26T02:25:15.565Z,19.62
2019-02-26T02:27:47.552Z,22.65
2019-02-26T02:30:22.468Z,23.35
2019-02-26T02:32:51.241Z,22.35
2019-02-26T02:35:19.303Z,23.05
2019-02-26T02:37:50.828Z,22.40
2019-02-26T02:40:18.675Z,22.70
2019-02-26T02:42:49.121Z,21.48
2019-02-26T02:45:20.698Z,22.32
2019-02-26T02:47:48.058Z,24.20
2019-02-26T02:50:18.387Z,21.95
2019-02-26T02:52:47.050Z,22.10
2019-02-26T02:55:18.649Z,23.60
2019-02-26T02:57:48.694Z,24.70
2019-02-26T03:00:16.617Z,24.92
2019-02-26T03:02:46.727Z,24.12
2019-02-26T03:05:15.714Z,22.15
2019-02-26T03:07:45.873Z,26.00
2019-02-26T03:10:15.272Z,27.65
2019-02-26T03:12:47.612Z,26.77
2019-02-26T03:15:17.988Z,23.30
2019-02-26T03:17:46.617Z,25.50
2019-02-26T03:20:15.709Z,23.18
2019-02-26T03:22:48.759Z,22.60
2019-02-26T03:25:20.932Z,21.95
2019-02-26T03:27:48.424Z,22.45
2019-02-26T03:30:32.239Z,23.85
2019-02-26T03:32:58.527Z,25.15
2019-02-26T03:35:24.305Z,23.38
2019-02-26T03:37:57.277Z,23.40
2019-02-26T03:40:24.937Z,25.05
2019-02-26T03:42:53.645Z,24.25
2019-02-26T03:45:24.811Z,23.22
2019-02-26T03:47:55.458Z,25.75
2019-02-26T03:50:26.317Z,22.90
2019-02-26T03:52:53.412Z,23.20
2019-02-26T03:55:22.070Z,25.82
2019-02-26T03:57:55.979Z,22.85
2019-02-26T04:00:21.243Z,27.32
2019-02-26T04:02:51.627Z,25.05
2019-02-26T04:05:20.260Z,25.68
2019-02-26T04:07:51.894Z,25.23
2019-02-26T04:10:19.366Z,23.62
2019-02-26T04:12:51.820Z,23.98
2019-02-26T04:15:19.191Z,23.83
2019-02-26T04:17:47.840Z,22.10
2019-02-26T04:20:17.293Z,25.55
2019-02-26T04:22:49.776Z,26.33
2019-02-26T04:25:36.687Z,30.77
2019-02-26T04:28:21.761Z,28.15
2019-02-26T04:31:02.837Z,29.00
2019-02-26T04:34:04.371Z,26.37
2019-02-26T04:36:53.434Z,28.87
2019-02-26T04:39:40.307Z,28.47
2019-02-26T04:42:20.505Z,28.65
2019-02-26T04:45:09.410Z,34.08
2019-02-26T04:47:46.626Z,26.40
2019-02-26T04:50:15.256Z,36.20
2019-02-26T04:52:43.919Z,28.30
2019-02-26T04:55:12.520Z,29.12
2019-02-26T04:57:43.322Z,29.50
2019-02-26T05:00:11.571Z,30.12
2019-02-26T05:02:40.229Z,26.82
2019-02-26T05:05:09.381Z,29.35
2019-02-26T05:07:39.159Z,26.70
2019-02-26T05:10:08.549Z,27.65
2019-02-26T05:12:39.999Z,25.65
2019-02-26T05:15:13.924Z,25.77
2019-02-26T05:17:40.330Z,26.17
2019-02-26T05:20:12.264Z,22.93
2019-02-26T05:22:39.319Z,22.27
2019-02-26T05:25:13.710Z,25.90
2019-02-26T05:27:42.344Z,22.60
2019-02-26T05:30:13.021Z,25.27
2019-02-26T05:32:40.361Z,22.42
2019-02-26T05:35:09.014Z,26.87
2019-02-26T05:37:40.848Z,26.27
2019-02-26T05:40:12.148Z,24.45
2019-02-26T05:42:38.720Z,23.50
2019-02-26T05:45:09.884Z,26.57
2019-02-26T05:47:37.858Z,26.95
2019-02-26T05:50:12.854Z,25.35
2019-02-26T05:52:38.953Z,24.52
2019-02-26T05:55:08.400Z,25.30
2019-02-26T05:57:37.081Z,25.20
2019-02-26T06:00:13.393Z,23.45
2019-02-26T06:02:42.213Z,26.35
2019-02-26T06:05:11.928Z,25.57
2019-02-26T06:07:40.551Z,25.00
2019-02-26T06:10:09.554Z,29.12
2019-02-26T06:12:40.738Z,27.87
2019-02-26T06:15:08.783Z,28.87
2019-02-26T06:17:40.608Z,28.45
2019-02-26T06:20:20.378Z,26.93
2019-02-26T06:22:49.135Z,31.10
2019-02-26T06:25:23.288Z,32.78
2019-02-26T06:27:48.112Z,31.90
2019-02-26T06:30:17.751Z,31.25
2019-02-26T06:32:46.436Z,29.85
2019-02-26T06:35:18.634Z,30.82
2019-02-26T06:37:46.664Z,27.52
2019-02-26T06:40:16.773Z,30.43
2019-02-26T06:42:45.426Z,35.63
2019-02-26T06:45:16.502Z,32.90
2019-02-26T06:47:45.784Z,29.30
2019-02-26T06:50:18.462Z,33.20
2019-02-26T06:52:47.868Z,31.23
2019-02-26T06:55:16.330Z,28.47
2019-02-26T06:57:47.226Z,29.77
2019-02-26T07:00:19.716Z,29.85
2019-02-26T07:02:48.019Z,28.23
2019-02-26T07:05:16.616Z,29.70
2019-02-26T07:07:45.267Z,29.50
2019-02-26T07:10:21.459Z,34.90
2019-02-26T07:12:48.719Z,29.23
2019-02-26T07:15:17.784Z,27.02
2019-02-26T07:17:46.438Z,29.52
2019-02-26T07:20:15.219Z,29.35
2019-02-26T07:22:46.476Z,31.10
2019-02-26T07:25:16.658Z,33.73
2019-02-26T07:27:44.565Z,32.00
2019-02-26T07:30:13.200Z,31.15
2019-02-26T07:32:45.111Z,32.50
2019-02-26T07:35:14.377Z,36.08
2019-02-26T07:37:42.794Z,33.40
2019-02-26T07:40:15.242Z,32.85
2019-02-26T07:42:44.698Z,32.65
2019-02-26T07:45:15.370Z,34.73
2019-02-26T07:47:45.230Z,30.55
2019-02-26T07:50:14.976Z,34.83
2019-02-26T07:52:44.571Z,34.58
2019-02-26T07:55:17.382Z,33.05
2019-02-26T07:57:47.993Z,32.98
2019-02-26T08:00:22.872Z,32.93
2019-02-26T08:02:53.998Z,32.65
2019-02-26T08:05:25.706Z,28.32
2019-02-26T08:07:55.802Z,33.53
2019-02-26T08:10:22.952Z,29.10
2019-02-26T08:12:51.601Z,33.15
2019-02-26T08:15:20.206Z,31.15
2019-02-26T08:17:53.218Z,31.62
2019-02-26T08:20:19.439Z,30.12
2019-02-26T08:22:49.519Z,26.42
2019-02-26T08:25:18.416Z,30.23
2019-02-26T08:27:47.028Z,28.42
2019-02-26T08:30:18.818Z,30.40
2019-02-26T08:32:51.109Z,28.35
2019-02-26T08:35:18.893Z,29.50
2019-02-26T08:37:47.691Z,27.60
2019-02-26T08:40:16.441Z,29.40
2019-02-26T08:42:45.104Z,28.00
2019-02-26T08:45:23.594Z,33.60
2019-02-26T08:47:51.475Z,32.35
2019-02-26T08:50:20.083Z,39.00
2019-02-26T08:52:50.801Z,30.75
2019-02-26T08:55:21.520Z,37.25
2019-02-26T08:57:51.468Z,34.05
2019-02-26T09:00:21.193Z,41.65
2019-02-26T09:02:53.741Z,42.80
2019-02-26T09:05:20.300Z,33.45
2019-02-26T09:07:50.501Z,32.83
2019-02-26T09:10:21.249Z,31.68
2019-02-26T09:12:51.950Z,32.60
2019-02-26T09:15:21.315Z,28.83
2019-02-26T09:17:49.996Z,31.87
2019-02-26T09:20:20.511Z,31.37
2019-02-26T09:22:51.452Z,30.43
2019-02-26T09:25:21.066Z,27.98
2019-02-26T09:27:50.179Z,31.12
2019-02-26T09:30:19.677Z,35.48
2019-02-26T09:32:48.343Z,33.88
2019-02-26T09:35:24.696Z,32.05
2019-02-26T09:37:50.739Z,30.20
2019-02-26T09:40:23.727Z,31.87
2019-02-26T09:42:54.010Z,34.90
2019-02-26T09:45:29.552Z,31.82
2019-02-26T09:47:57.832Z,35.95
2019-02-26T09:50:26.735Z,34.33
2019-02-26T09:52:59.058Z,37.60
2019-02-26T09:55:27.438Z,36.25
2019-02-26T09:57:56.169Z,95.97
2019-02-26T10:00:27.215Z,87.82
2019-02-26T10:02:55.663Z,44.77
2019-02-26T10:05:24.312Z,60.80
2019-02-26T10:07:54.893Z,63.63
2019-02-26T10:10:27.578Z,38.65
2019-02-26T10:12:56.474Z,37.08
2019-02-26T10:15:24.740Z,38.40
2019-02-26T10:17:53.392Z,44.40
2019-02-26T10:20:27.873Z,40.83
2019-02-26T10:22:57.097Z,36.58
2019-02-26T10:25:27.947Z,38.67
2019-02-26T10:27:55.215Z,40.08
2019-02-26T10:30:23.823Z,37.42
2019-02-26T10:32:52.487Z,36.40
2019-02-26T10:35:32.423Z,35.65
2019-02-26T10:38:05.143Z,35.00
2019-02-26T10:40:35.685Z,35.38
2019-02-26T10:43:02.482Z,34.63
2019-02-26T10:45:36.212Z,37.35
2019-02-26T10:48:02.684Z,32.88
2019-02-26T10:50:32.415Z,36.20
2019-02-26T10:53:07.883Z,33.55
2019-02-26T10:55:38.567Z,35.90
2019-02-26T10:58:10.018Z,34.85
2019-02-26T11:03:14.841Z,38.17
2019-02-26T11:05:45.003Z,38.60
2019-02-26T11:08:15.806Z,38.13
2019-02-26T11:10:47.849Z,38.58
2019-02-26T11:13:18.152Z,43.15
2019-02-26T11:18:42.550Z,50.35
2019-02-26T11:21:11.287Z,63.25
2019-02-26T11:23:41.613Z,79.47
2019-02-26T11:26:13.144Z,55.67
2019-02-26T11:28:43.590Z,86.72
2019-02-26T11:31:14.040Z,63.60
2019-02-26T11:33:44.197Z,51.42
2019-02-26T11:36:15.609Z,57.27
2019-02-26T11:38:46.902Z,63.98
2019-02-26T11:41:15.182Z,52.10
2019-02-26T11:43:44.813Z,69.42
2019-02-26T11:46:14.568Z,46.33
2019-02-26T11:48:45.699Z,39.80
2019-02-26T11:51:17.669Z,35.88
2019-02-26T11:53:48.104Z,36.90
2019-02-26T11:56:20.691Z,37.63
2019-02-26T11:58:49.003Z,39.08
2019-02-26T12:01:18.112Z,33.75
2019-02-26T12:03:47.444Z,35.85
2019-02-26T12:06:16.895Z,35.80
2019-02-26T12:08:47.349Z,34.00
2019-02-26T12:11:18.251Z,35.08
2019-02-26T12:13:47.907Z,33.35
2019-02-26T12:16:18.739Z,35.38
2019-02-26T12:18:48.214Z,39.15
2019-02-26T12:21:17.826Z,34.30
2019-02-26T12:23:47.271Z,32.85
2019-02-26T12:26:17.256Z,36.58
2019-02-26T12:28:46.367Z,35.23
2019-02-26T12:31:15.025Z,32.17
2019-02-26T12:33:43.687Z,41.77
2019-02-26T12:36:12.308Z,36.90
2019-02-26T12:38:41.097Z,34.95
2019-02-26T12:41:12.278Z,35.25
2019-02-26T12:43:43.181Z,35.10
2019-02-26T12:46:10.485Z,35.95
2019-02-26T12:48:43.810Z,33.53
2019-02-26T12:51:09.477Z,34.85
2019-02-26T12:53:40.451Z,37.17
2019-02-26T12:56:08.995Z,37.00
2019-02-26T12:58:38.202Z,37.28
2019-02-26T13:01:07.991Z,34.00
2019-02-26T13:03:39.833Z,32.85
2019-02-26T13:06:10.055Z,36.45
2019-02-26T13:08:39.873Z,32.48
2019-02-26T13:11:07.795Z,32.88
2019-02-26T13:13:36.411Z,33.18
2019-02-26T13:16:05.071Z,36.98
2019-02-26T13:18:33.734Z,33.15
2019-02-26T13:21:03.943Z,37.05
2019-02-26T13:23:32.728Z,31.80
2019-02-26T13:26:03.726Z,32.03
2019-02-26T13:28:31.734Z,31.85
2019-02-26T13:31:02.463Z,31.70
2019-02-26T13:33:36.874Z,29.40
2019-02-26T13:36:04.760Z,32.13
2019-02-26T13:38:37.562Z,34.85
2019-02-26T13:41:25.226Z,31.45
2019-02-26T13:43:32.846Z,32.75
2019-02-26T13:46:01.542Z,33.98
2019-02-26T13:48:30.196Z,33.80
2019-02-26T13:50:58.807Z,31.97
2019-02-26T13:53:27.466Z,29.60
2019-02-26T13:55:56.129Z,28.67
2019-02-26T13:58:24.741Z,32.25
2019-02-26T14:00:53.476Z,30.95
2019-02-26T14:03:22.089Z,31.05
2019-02-26T14:05:50.829Z,31.25
2019-02-26T14:08:19.504Z,31.93
2019-02-26T14:10:48.118Z,32.35
2019-02-26T14:13:16.775Z,31.60
2019-02-26T14:15:45.458Z,28.75
2019-02-26T14:18:14.121Z,32.60
2019-02-26T14:20:42.737Z,33.88
2019-02-26T14:23:11.397Z,30.88
2019-02-26T14:25:40.009Z,32.13
2019-02-26T14:28:08.666Z,30.57
2019-02-26T14:30:37.273Z,36.73
2019-02-26T14:33:05.954Z,32.48
2019-02-26T14:35:34.573Z,29.72
2019-02-26T14:38:03.458Z,36.65
2019-02-26T14:40:32.117Z,30.17
2019-02-26T14:43:00.727Z,29.85
2019-02-26T14:45:29.471Z,29.25
2019-02-26T14:47:58.086Z,35.17
2019-02-26T14:50:27.080Z,32.58
2019-02-26T14:52:55.812Z,28.77
2019-02-26T14:55:24.477Z,31.33
2019-02-26T14:57:53.139Z,31.45
2019-02-26T15:00:29.410Z,33.60
2019-02-26T15:02:58.180Z,33.85
2019-02-26T15:05:26.930Z,34.90
2019-02-26T15:07:55.597Z,35.23
2019-02-26T15:10:24.207Z,36.75
2019-02-26T15:12:53.227Z,35.33
2019-02-26T15:15:21.996Z,34.92
2019-02-26T15:17:50.730Z,35.45
2019-02-26T15:20:23.169Z,31.15
2019-02-26T15:22:51.866Z,35.03
2019-02-26T15:25:23.735Z,33.08
2019-02-26T15:27:52.398Z,30.82
2019-02-26T15:30:22.465Z,32.13
2019-02-26T15:32:51.162Z,33.63
2019-02-26T15:35:20.241Z,33.25
2019-02-26T15:37:49.002Z,30.43
2019-02-26T15:40:21.747Z,29.72
2019-02-26T15:42:53.023Z,32.38
2019-02-26T15:45:29.690Z,26.15
2019-02-26T15:47:58.442Z,28.92
2019-02-26T15:50:27.123Z,25.27
2019-02-26T15:52:55.727Z,28.73
2019-02-26T15:55:31.912Z,30.17
2019-02-26T15:58:03.952Z,32.23
2019-02-26T16:00:30.977Z,31.23
2019-02-26T16:03:00.121Z,30.25
2019-02-26T16:05:39.226Z,32.93
2019-02-26T16:08:08.065Z,28.67
2019-02-26T16:10:37.112Z,29.55
2019-02-26T16:13:05.863Z,29.82
2019-02-26T16:15:36.726Z,32.63
2019-02-26T16:18:05.414Z,34.15
2019-02-26T16:20:34.066Z,36.25
2019-02-26T16:23:03.358Z,35.48
2019-02-26T16:25:32.113Z,34.95
2019-02-26T16:28:00.866Z,32.42
2019-02-26T16:30:30.622Z,36.00
2019-02-26T16:33:02.933Z,37.95
2019-02-26T16:35:33.073Z,37.60
2019-02-26T16:38:01.706Z,33.83
2019-02-26T16:40:32.219Z,37.75
2019-02-26T16:43:01.783Z,35.83
2019-02-26T16:45:36.791Z,33.70
2019-02-26T16:48:06.535Z,33.38
2019-02-26T16:50:35.186Z,33.45
2019-02-26T16:53:04.797Z,30.62
2019-02-26T16:55:34.754Z,33.02
2019-02-26T16:58:04.622Z,30.77
2019-02-26T17:00:33.639Z,30.05
2019-02-26T17:03:03.020Z,29.87
2019-02-26T17:05:33.985Z,29.57
2019-02-26T17:08:03.559Z,28.57
2019-02-26T17:10:33.933Z,30.92
2019-02-26T17:13:03.130Z,31.82
2019-02-26T17:15:37.749Z,29.40
2019-02-26T17:18:09.796Z,27.42
2019-02-26T17:20:38.360Z,26.68
2019-02-26T17:23:08.413Z,28.73
2019-02-26T17:25:39.387Z,30.23
2019-02-26T17:28:09.505Z,29.48
2019-02-26T17:30:38.738Z,31.10
2019-02-26T17:33:11.664Z,29.98
2019-02-26T17:35:40.758Z,29.60
2019-02-26T17:38:09.549Z,31.77
2019-02-26T17:40:38.157Z,28.02
2019-02-26T17:43:06.839Z,31.07
2019-02-26T17:45:38.243Z,30.10
2019-02-26T17:48:07.313Z,27.65
2019-02-26T17:50:43.436Z,30.23
2019-02-26T17:53:10.830Z,28.80
2019-02-26T17:55:39.587Z,29.07
2019-02-26T17:58:10.585Z,30.70
2019-02-26T18:00:38.589Z,29.82
2019-02-26T18:03:07.712Z,31.68
2019-02-26T18:05:40.510Z,32.95
2019-02-26T18:08:06.834Z,31.48
2019-02-26T18:10:36.807Z,29.02
2019-02-26T18:13:07.052Z,30.85
2019-02-26T18:15:37.020Z,30.12
2019-02-26T18:18:06.662Z,32.40
2019-02-26T18:20:36.788Z,31.20
2019-02-26T18:23:05.507Z,32.73
2019-02-26T18:25:36.572Z,29.30
2019-02-26T18:28:08.621Z,29.02
2019-02-26T18:30:38.413Z,29.60
2019-02-26T18:33:07.909Z,30.80
2019-02-26T18:35:37.138Z,29.55
2019-02-26T18:38:06.489Z,32.38
2019-02-26T18:40:35.129Z,28.57
2019-02-26T18:43:05.918Z,31.05
2019-02-26T18:45:34.632Z,32.63
2019-02-26T18:48:04.107Z,30.57
2019-02-26T18:50:32.834Z,32.20
2019-02-26T18:53:01.511Z,30.57
2019-02-26T18:55:32.465Z,29.63
2019-02-26T18:58:00.500Z,34.90
2019-02-26T19:00:31.803Z,30.40
2019-02-26T19:03:00.408Z,31.15
2019-02-26T19:05:29.062Z,35.23
2019-02-26T19:07:57.669Z,35.45
2019-02-26T19:10:26.323Z,34.10
2019-02-26T19:12:54.934Z,35.10
2019-02-26T19:15:29.480Z,32.13
2019-02-26T19:18:02.257Z,32.83
2019-02-26T19:20:39.855Z,31.95
2019-02-26T19:23:08.575Z,32.78
2019-02-26T19:25:41.460Z,36.48
2019-02-26T19:28:07.579Z,34.35
2019-02-26T19:30:36.963Z,34.40
2019-02-26T19:33:06.385Z,35.60
2019-02-26T19:35:40.029Z,31.33
2019-02-26T19:38:05.811Z,28.80
2019-02-26T19:40:48.085Z,31.93
2019-02-26T19:43:16.748Z,33.80
2019-02-26T19:45:45.409Z,32.60
2019-02-26T19:48:14.012Z,31.15
2019-02-26T19:50:45.510Z,34.25
2019-02-26T19:53:12.997Z,32.05
2019-02-26T19:55:49.807Z,31.40
2019-02-26T19:58:17.915Z,29.72
2019-02-26T20:00:46.635Z,34.38
2019-02-26T20:03:15.309Z,34.98
2019-02-26T20:05:46.257Z,34.15
2019-02-26T20:08:14.293Z,32.55
2019-02-26T20:10:42.951Z,35.15
2019-02-26T20:13:12.758Z,32.42
2019-02-26T20:15:41.699Z,33.02
2019-02-26T20:18:20.015Z,32.00
2019-02-26T20:20:41.213Z,34.15
2019-02-26T20:23:09.936Z,29.35
2019-02-26T20:25:42.539Z,31.80
2019-02-26T20:28:08.987Z,33.48
2019-02-26T20:30:37.595Z,31.00
2019-02-26T20:33:11.083Z,27.80
2019-02-26T20:35:39.803Z,31.50
2019-02-26T20:38:08.532Z,32.48
2019-02-26T20:40:37.176Z,31.75
2019-02-26T20:43:05.791Z,29.23
2019-02-26T20:45:34.438Z,32.90
2019-02-26T20:48:04.209Z,34.38
2019-02-26T20:50:33.591Z,34.18
2019-02-26T20:53:05.599Z,31.17
2019-02-26T20:55:33.818Z,33.55
2019-02-26T20:58:02.686Z,30.48
2019-02-26T21:00:31.890Z,31.90
2019-02-26T21:03:00.540Z,33.60
2019-02-26T21:05:29.141Z,34.38
2019-02-26T21:07:58.915Z,29.90
2019-02-26T21:10:27.682Z,32.90
2019-02-26T21:12:56.338Z,34.90
2019-02-26T21:15:25.783Z,33.18
2019-02-26T21:17:57.788Z,31.62
2019-02-26T21:20:24.767Z,34.40
2019-02-26T21:22:54.891Z,31.48
2019-02-26T21:25:23.970Z,34.48
2019-02-26T21:27:52.575Z,34.53
2019-02-26T21:30:23.439Z,32.93
2019-02-26T21:32:52.043Z,33.13
2019-02-26T21:35:21.357Z,33.28
2019-02-26T21:37:50.087Z,36.28
2019-02-26T21:40:18.916Z,37.05
2019-02-26T21:42:47.590Z,33.35
2019-02-26T21:45:17.806Z,34.38
2019-02-26T21:47:46.782Z,35.68
2019-02-26T21:50:16.278Z,36.15
2019-02-26T21:52:59.172Z,35.13
2019-02-26T21:55:16.112Z,32.33
2019-02-26T21:57:44.768Z,39.27
2019-02-26T22:00:20.456Z,37.23
2019-02-26T22:02:51.917Z,33.30
2019-02-26T22:05:19.579Z,35.52
2019-02-26T22:07:52.084Z,32.28
2019-02-26T22:10:22.248Z,33.78
2019-02-26T22:12:50.896Z,35.83
2019-02-26T22:15:19.553Z,37.70
2019-02-26T22:17:48.202Z,36.00
2019-02-26T22:20:23.638Z,34.40
2019-02-26T22:22:49.225Z,34.23
2019-02-26T22:25:17.877Z,34.58
2019-02-26T22:27:46.597Z,33.38
2019-02-26T22:30:21.641Z,32.25
2019-02-26T22:32:48.300Z,33.02
2019-02-26T22:35:17.028Z,33.33
2019-02-26T22:37:45.714Z,33.35
2019-02-26T22:40:15.270Z,32.85
2019-02-26T22:42:44.168Z,33.40
2019-02-26T22:45:14.233Z,28.55
2019-02-26T22:47:44.072Z,33.28
2019-02-26T22:50:15.301Z,33.78
2019-02-26T22:52:44.234Z,30.68
2019-02-26T22:55:16.471Z,34.18
2019-02-26T22:57:45.369Z,35.43
2019-02-26T23:00:41.517Z,35.30
2019-02-26T23:03:10.746Z,34.73
2019-02-26T23:05:40.526Z,31.90
2019-02-26T23:08:09.616Z,34.33
2019-02-26T23:10:39.801Z,36.75
2019-02-26T23:13:08.698Z,32.50
2019-02-26T23:15:37.380Z,35.25
2019-02-26T23:18:06.034Z,31.33
2019-02-26T23:20:35.179Z,34.95
2019-02-26T23:23:04.003Z,33.40
2019-02-26T23:25:35.672Z,36.28
2019-02-26T23:28:03.596Z,35.80
2019-02-26T23:30:32.203Z,36.35
2019-02-26T23:33:00.967Z,34.88
2019-02-26T23:35:29.791Z,34.45
2019-02-26T23:37:58.885Z,32.58
2019-02-26T23:40:28.109Z,36.00
2019-02-26T23:42:57.215Z,33.40
2019-02-26T23:45:25.934Z,32.93
2019-02-26T23:47:54.540Z,30.68
2019-02-26T23:50:23.196Z,32.23
2019-02-26T23:52:51.802Z,25.10
2019-02-26T23:55:20.457Z,30.65
2019-02-26T23:57:49.109Z,30.08
